Time;durP1;ratioP1;P1;durP2;ratioP2;P2;SDS_P1;SDS_P2;PMS_P1;PMS_P2;Temp;Humidity;BMP_temperature;BMP_pressure;BME280_temperature;BME280_humidity;BME280_pressure;Samples;Min_cycle;Max_cycle;Signal;HPM_P1;HPM_P2
2022/08/16 00:01:14;;;;;;;15.02;13.00;;;;;;;20.52;nan;94606.75;4990904;28;20223;-66
2022/08/16 00:03:40;;;;;;;19.17;13.27;;;;;;;20.54;nan;94610.81;4991011;28;20851;-68
2022/08/16 00:06:07;;;;;;;14.75;13.35;;;;;;;20.39;nan;94617.19;4990134;28;20228;-67
2022/08/16 00:08:34;;;;;;;32.53;15.00;;;;;;;20.47;nan;94616.59;4991090;28;20254;-67
2022/08/16 00:11:00;;;;;;;14.10;12.63;;;;;;;20.67;nan;94616.66;4989845;28;20736;-68
2022/08/16 00:13:28;;;;;;;13.43;12.30;;;;;;;20.45;nan;94605.56;4986677;28;20976;-68
2022/08/16 00:15:54;;;;;;;14.60;13.27;;;;;;;20.52;nan;94606.75;4991441;28;20818;-68
2022/08/16 00:18:23;;;;;;;14.02;12.60;;;;;;;20.52;nan;94606.75;4985641;28;20304;-68
2022/08/16 00:20:49;;;;;;;13.80;12.50;;;;;;;20.69;nan;94607.03;4988485;28;20760;-65
2022/08/16 00:23:16;;;;;;;15.60;13.32;;;;;;;20.77;nan;94606.41;4987067;28;20677;-68
2022/08/16 00:25:43;;;;;;;14.27;12.98;;;;;;;20.85;nan;94609.19;4988830;28;20199;-68
2022/08/16 00:28:11;;;;;;;13.65;12.30;;;;;;;20.96;nan;94606.56;4987227;28;20580;-69
2022/08/16 00:30:38;;;;;;;12.65;11.55;;;;;;;20.94;nan;94618.78;4986291;28;20692;-66
2022/08/16 00:33:05;;;;;;;12.98;11.82;;;;;;;21.04;nan;94614.47;4988869;28;20203;-69
2022/08/16 00:35:36;;;;;;;13.98;12.75;;;;;;;20.87;nan;94612.44;4988643;28;20754;-69
2022/08/16 00:38:04;;;;;;;13.52;11.85;;;;;;;20.92;nan;94617.25;4988948;28;20260;-72
2022/08/16 00:40:35;;;;;;;13.90;12.45;;;;;;;20.96;nan;94619.47;4987709;28;20290;-71
2022/08/16 00:43:05;;;;;;;14.18;12.93;;;;;;;20.87;nan;94617.63;4989007;28;20207;-69
2022/08/16 00:45:36;;;;;;;15.05;12.95;;;;;;;20.52;nan;94617.88;4990057;28;20265;-69
2022/08/16 00:48:06;;;;;;;16.05;13.02;;;;;;;20.55;nan;94621.97;4989229;28;20234;-70
2022/08/16 00:50:37;;;;;;;13.50;12.20;;;;;;;20.51;nan;94629.16;4987189;28;20235;-69
2022/08/16 00:53:04;;;;;;;14.20;12.65;;;;;;;20.13;nan;94637.28;4989591;28;20207;-69
2022/08/16 00:55:31;;;;;;;14.38;13.18;;;;;;;19.85;nan;94630.03;4988000;28;20227;-68
2022/08/16 00:57:59;;;;;;;19.15;12.50;;;;;;;19.76;nan;94633.31;4990076;28;20196;-69
2022/08/16 01:00:27;;;;;;;14.80;13.48;;;;;;;19.65;nan;94637.53;4987779;28;20732;-68
2022/08/16 01:02:55;;;;;;;14.63;12.40;;;;;;;19.55;nan;94631.41;4989564;28;20257;-67
2022/08/16 01:05:22;;;;;;;14.52;13.07;;;;;;;19.41;nan;94634.19;4991998;28;20301;-69
2022/08/16 01:07:51;;;;;;;15.60;13.98;;;;;;;19.76;nan;94638.47;4990936;28;20203;-70
2022/08/16 01:10:18;;;;;;;13.23;12.02;;;;;;;20.05;nan;94645.59;4989397;28;20206;-70
2022/08/16 01:12:45;;;;;;;17.25;13.45;;;;;;;20.48;nan;94646.63;4949991;28;20236;-69
2022/08/16 01:15:12;;;;;;;14.02;12.70;;;;;;;20.73;nan;94645.50;4952047;28;20980;-68
2022/08/16 01:17:40;;;;;;;14.07;12.73;;;;;;;20.72;nan;94649.84;4950992;28;20224;-68
2022/08/16 01:20:10;;;;;;;13.98;12.55;;;;;;;20.71;nan;94650.78;4949154;28;20212;-70
2022/08/16 01:22:47;;;;;;;13.65;12.20;;;;;;;20.93;nan;94657.63;4951069;28;20213;-70
2022/08/16 01:25:20;;;;;;;13.38;11.75;;;;;;;21.12;nan;94662.13;4952439;28;20212;-67
2022/08/16 01:27:51;;;;;;;12.90;11.90;;;;;;;21.13;nan;94656.03;4952931;28;20228;-68
2022/08/16 01:30:22;;;;;;;13.25;11.93;;;;;;;21.15;nan;94651.53;4951278;28;20306;-68
2022/08/16 01:32:51;;;;;;;12.38;11.23;;;;;;;21.09;nan;94652.88;4950742;28;20204;-68
2022/08/16 01:35:22;;;;;;;16.95;12.70;;;;;;;21.08;nan;94655.56;4950300;28;20249;-69
2022/08/16 01:37:53;;;;;;;11.70;10.77;;;;;;;21.21;nan;94654.50;4952183;28;20236;-67
2022/08/16 01:40:24;;;;;;;12.95;11.65;;;;;;;21.16;nan;94653.19;4953268;28;20205;-66
2022/08/16 01:42:52;;;;;;;13.85;12.45;;;;;;;20.91;nan;94657.75;4955785;28;20212;-66
2022/08/16 01:45:19;;;;;;;14.07;12.77;;;;;;;20.92;nan;94661.16;4955461;28;20236;-69
2022/08/16 01:47:49;;;;;;;13.10;11.93;;;;;;;20.53;nan;94660.81;4955701;28;20240;-66
2022/08/16 01:50:16;;;;;;;13.77;12.38;;;;;;;20.14;nan;94663.88;4956014;28;21309;-69
2022/08/16 01:52:43;;;;;;;13.98;12.63;;;;;;;20.12;nan;94666.59;4955138;28;20228;-69
2022/08/16 01:55:10;;;;;;;14.38;12.93;;;;;;;20.51;nan;94664.47;4956510;28;20232;-67
2022/08/16 01:57:38;;;;;;;12.18;11.13;;;;;;;20.84;nan;94664.34;4955067;28;20208;-69
2022/08/16 02:00:08;;;;;;;12.68;11.45;;;;;;;21.03;nan;94668.88;4952553;28;20216;-66
2022/08/16 02:02:35;;;;;;;13.40;12.02;;;;;;;21.18;nan;94671.97;4956089;28;20238;-68
2022/08/16 02:05:02;;;;;;;12.73;11.45;;;;;;;21.28;nan;94673.69;4955643;28;20201;-67
2022/08/16 02:07:31;;;;;;;13.07;11.88;;;;;;;21.55;nan;94675.78;4953972;28;20204;-69
2022/08/16 02:09:58;;;;;;;13.32;11.85;;;;;;;21.75;nan;94691.44;4955453;28;20680;-70
2022/08/16 02:12:26;;;;;;;11.60;10.70;;;;;;;21.85;nan;94698.28;4989764;28;20297;-68
2022/08/16 02:14:54;;;;;;;13.40;12.07;;;;;;;21.92;nan;94708.94;4992246;28;20207;-67
2022/08/16 02:17:21;;;;;;;13.40;10.75;;;;;;;21.91;nan;94712.47;4994409;28;20212;-70
2022/08/16 02:19:48;;;;;;;10.93;10.13;;;;;;;21.61;nan;94721.00;4993913;28;20215;-69
2022/08/16 02:22:19;;;;;;;10.63;9.57;;;;;;;21.70;nan;94722.84;4994753;28;20212;-69
2022/08/16 02:24:47;;;;;;;15.32;11.15;;;;;;;21.88;nan;94718.72;4992765;28;20303;-68
2022/08/16 02:27:14;;;;;;;11.52;10.52;;;;;;;21.88;nan;94717.91;4994439;28;20277;-67
2022/08/16 02:29:41;;;;;;;12.48;11.50;;;;;;;21.81;nan;94727.94;4992648;28;20218;-68
2022/08/16 02:32:11;;;;;;;11.43;10.32;;;;;;;21.57;nan;94714.44;4992560;28;20207;-67
2022/08/16 02:34:38;;;;;;;16.83;10.38;;;;;;;21.44;nan;94730.16;4993402;28;20227;-67
2022/08/16 02:37:05;;;;;;;14.88;11.55;;;;;;;21.38;nan;94730.66;4992734;28;21960;-70
2022/08/16 02:39:32;;;;;;;12.68;11.40;;;;;;;20.99;nan;94714.81;4991135;28;20213;-69
2022/08/16 02:41:59;;;;;;;15.65;11.60;;;;;;;20.83;nan;94708.38;4996783;28;20658;-71
2022/08/16 02:44:25;;;;;;;11.93;10.70;;;;;;;20.59;nan;94711.94;4997731;28;20217;-70
2022/08/16 02:46:52;;;;;;;12.90;11.70;;;;;;;20.54;nan;94718.44;4995016;28;20223;-69
2022/08/16 02:49:22;;;;;;;15.98;12.00;;;;;;;20.14;nan;94725.81;4993567;28;20204;-70
2022/08/16 02:51:48;;;;;;;17.10;13.35;;;;;;;20.08;nan;94721.94;4994191;28;20208;-70
2022/08/16 02:54:15;;;;;;;15.30;13.25;;;;;;;19.72;nan;94724.72;4994241;28;20212;-70
2022/08/16 02:56:43;;;;;;;13.70;12.60;;;;;;;19.49;nan;94719.50;4995837;28;20223;-71
2022/08/16 02:59:10;;;;;;;14.55;12.27;;;;;;;19.41;nan;94721.81;4993563;28;20334;-70
2022/08/16 03:01:37;;;;;;;14.93;13.65;;;;;;;19.55;nan;94718.25;4994494;28;20203;-69
2022/08/16 03:04:06;;;;;;;14.38;13.07;;;;;;;19.48;nan;94710.13;4994158;28;20199;-70
2022/08/16 03:06:34;;;;;;;15.23;13.25;;;;;;;19.55;nan;94708.72;4992608;28;20281;-71
2022/08/16 03:09:02;;;;;;;13.77;12.55;;;;;;;19.84;nan;94703.16;4991601;28;20199;-71
2022/08/16 03:11:30;;;;;;;14.07;12.88;;;;;;;20.09;nan;94696.97;4992109;28;20243;-70
2022/08/16 03:13:58;;;;;;;15.68;13.00;;;;;;;20.17;nan;94687.69;4997284;28;20229;-68
2022/08/16 03:16:25;;;;;;;14.63;12.18;;;;;;;20.22;nan;94683.00;4994000;28;20235;-70
2022/08/16 03:18:53;;;;;;;14.18;12.98;;;;;;;20.28;nan;94687.69;4996194;28;20713;-67
2022/08/16 03:21:20;;;;;;;13.93;12.57;;;;;;;20.41;nan;94681.59;4993912;28;20341;-69
2022/08/16 03:23:48;;;;;;;13.77;12.45;;;;;;;20.30;nan;94680.63;4993008;28;20208;-70
2022/08/16 03:26:15;;;;;;;13.98;12.65;;;;;;;20.27;nan;94680.91;4994550;28;20281;-70
2022/08/16 03:28:42;;;;;;;14.77;13.15;;;;;;;20.15;nan;94681.84;4995608;28;20218;-68
2022/08/16 03:31:09;;;;;;;13.57;12.07;;;;;;;19.99;nan;94671.88;4994191;28;20218;-70
2022/08/16 03:33:36;;;;;;;13.55;12.15;;;;;;;20.24;nan;94675.16;4994121;28;20212;-70
2022/08/16 03:36:06;;;;;;;15.60;13.07;;;;;;;20.28;nan;94679.97;4992575;28;20227;-68
2022/08/16 03:38:33;;;;;;;13.90;12.70;;;;;;;20.27;nan;94680.06;4997430;28;20199;-70
2022/08/16 03:41:04;;;;;;;15.27;13.70;;;;;;;20.22;nan;94683.00;4995231;28;20208;-70
2022/08/16 03:43:31;;;;;;;13.23;12.10;;;;;;;20.16;nan;94690.41;4995889;28;20219;-70
2022/08/16 03:45:58;;;;;;;14.48;13.23;;;;;;;20.03;nan;94678.44;4994648;28;20266;-69
2022/08/16 03:48:28;;;;;;;13.25;11.80;;;;;;;19.97;nan;94678.91;4996545;28;20199;-69
2022/08/16 03:50:55;;;;;;;14.18;13.07;;;;;;;20.03;nan;94682.78;4993850;28;20579;-69
2022/08/16 03:53:22;;;;;;;12.93;11.88;;;;;;;20.10;nan;94690.84;4994944;28;21019;-70
2022/08/16 03:55:48;;;;;;;13.88;12.60;;;;;;;20.04;nan;94690.38;4995948;28;20243;-70
2022/08/16 03:58:17;;;;;;;20.60;12.95;;;;;;;19.98;nan;94684.91;4995959;28;20269;-71
2022/08/16 04:00:45;;;;;;;15.20;13.52;;;;;;;19.84;nan;94688.50;4993650;28;21626;-70
2022/08/16 04:03:12;;;;;;;13.80;12.68;;;;;;;19.98;nan;94690.06;4995822;28;20566;-70
2022/08/16 04:05:41;;;;;;;14.15;12.95;;;;;;;20.09;nan;94692.63;5000557;28;20357;-70
2022/08/16 04:08:08;;;;;;;15.90;14.07;;;;;;;20.01;nan;94685.47;4993938;28;20208;-71
2022/08/16 04:10:35;;;;;;;18.92;13.77;;;;;;;20.05;nan;94686.03;4993005;28;20409;-70
2022/08/16 04:13:02;;;;;;;16.58;14.88;;;;;;;20.05;nan;94680.88;4995718;28;20207;-72
2022/08/16 04:15:30;;;;;;;17.48;15.65;;;;;;;19.61;nan;94681.69;4994720;28;20285;-70
2022/08/16 04:18:00;;;;;;;19.25;16.23;;;;;;;19.71;nan;94687.81;4994019;28;20606;-70
2022/08/16 04:20:27;;;;;;;16.77;15.13;;;;;;;19.76;nan;94684.88;4993225;28;20273;-71
2022/08/16 04:22:54;;;;;;;84.43;58.80;;;;;;;19.78;nan;94680.44;4995797;28;20212;-70
2022/08/16 04:25:22;;;;;;;19.20;17.42;;;;;;;20.07;nan;94681.59;4994319;28;20204;-71
2022/08/16 04:27:49;;;;;;;19.30;17.50;;;;;;;19.96;nan;94676.44;4993693;28;20208;-70
2022/08/16 04:30:18;;;;;;;17.90;16.30;;;;;;;19.69;nan;94687.91;4994983;28;20253;-70
2022/08/16 04:32:46;;;;;;;18.85;16.83;;;;;;;19.56;nan;94692.34;4994199;28;20223;-69
2022/08/16 04:35:16;;;;;;;20.10;18.17;;;;;;;19.72;nan;94691.19;4995153;28;20207;-69
2022/08/16 04:37:44;;;;;;;22.67;17.48;;;;;;;19.57;nan;94690.56;4993525;28;20344;-70
2022/08/16 04:40:12;;;;;;;20.80;18.35;;;;;;;19.39;nan;94692.75;4992886;28;20214;-69
2022/08/16 04:42:41;;;;;;;19.77;17.75;;;;;;;19.25;nan;94703.25;4994499;28;20905;-70
2022/08/16 04:45:09;;;;;;;24.38;21.58;;;;;;;19.21;nan;94704.41;4992790;28;20763;-69
2022/08/16 04:47:37;;;;;;;24.40;21.92;;;;;;;19.51;nan;94697.03;4994646;28;20222;-69
2022/08/16 04:50:09;;;;;;;23.67;21.15;;;;;;;19.45;nan;94694.06;4994316;28;20399;-71
2022/08/16 04:52:36;;;;;;;25.80;23.30;;;;;;;19.72;nan;94698.94;4997016;28;20207;-70
2022/08/16 04:55:05;;;;;;;22.95;20.38;;;;;;;19.80;nan;94699.97;4994596;28;20718;-70
2022/08/16 04:57:32;;;;;;;26.40;19.42;;;;;;;19.86;nan;94694.38;4995637;28;20253;-69
2022/08/16 04:59:58;;;;;;;25.08;22.08;;;;;;;20.21;nan;94696.03;4994752;28;20207;-70
2022/08/16 05:02:25;;;;;;;20.80;17.77;;;;;;;20.67;nan;94703.63;4993633;28;20269;-69
2022/08/16 05:04:52;;;;;;;23.23;17.40;;;;;;;20.97;nan;94706.34;4994572;28;20211;-72
2022/08/16 05:07:20;;;;;;;18.00;16.05;;;;;;;21.63;nan;94712.19;4993201;28;21863;-71
2022/08/16 05:09:47;;;;;;;21.50;16.63;;;;;;;22.25;nan;94700.97;4992759;28;20641;-70
2022/08/16 05:12:14;;;;;;;17.95;16.23;;;;;;;22.49;nan;94705.81;4992941;28;20246;-70
2022/08/16 05:14:40;;;;;;;23.25;15.38;;;;;;;22.84;nan;94700.19;4993605;28;20677;-70
2022/08/16 05:17:07;;;;;;;17.13;15.52;;;;;;;23.30;nan;94703.88;4997147;28;21664;-70
2022/08/16 05:19:34;;;;;;;19.88;15.55;;;;;;;22.96;nan;94706.06;4992505;28;21225;-71
2022/08/16 05:22:01;;;;;;;16.65;14.48;;;;;;;23.71;nan;94719.19;4994448;28;20697;-70
2022/08/16 05:24:29;;;;;;;17.75;16.00;;;;;;;24.37;nan;94721.75;4995252;28;20236;-70
2022/08/16 05:26:56;;;;;;;19.65;14.90;;;;;;;25.34;nan;94726.38;4994873;28;20199;-70
2022/08/16 05:29:22;;;;;;;13.65;12.45;;;;;;;26.57;nan;94710.63;4996694;28;21602;-70
2022/08/16 05:31:49;;;;;;;17.20;12.57;;;;;;;26.95;nan;94710.16;4994467;28;20204;-71
2022/08/16 05:34:20;;;;;;;14.40;12.82;;;;;;;28.16;nan;94712.97;4992807;28;20261;-70
2022/08/16 05:36:48;;;;;;;14.68;13.15;;;;;;;29.90;nan;94718.59;4994074;28;20227;-70
2022/08/16 05:39:15;;;;;;;13.02;11.73;;;;;;;31.87;nan;94697.59;4993025;28;20223;-70
2022/08/16 05:41:43;;;;;;;14.48;12.25;;;;;;;33.24;nan;94696.72;4993747;28;20211;-72
2022/08/16 05:44:10;;;;;;;14.40;11.38;;;;;;;34.06;nan;94696.44;4994821;28;20689;-71
2022/08/16 05:46:37;;;;;;;13.93;12.07;;;;;;;32.58;nan;94693.81;4994461;28;20261;-71
2022/08/16 05:49:03;;;;;;;14.75;13.45;;;;;;;32.78;nan;94691.31;4997233;28;22046;-71
2022/08/16 05:51:30;;;;;;;15.02;12.27;;;;;;;34.49;nan;94685.41;4992012;28;20588;-71
2022/08/16 05:53:57;;;;;;;15.70;12.95;;;;;;;35.78;nan;94688.66;4990967;28;20265;-72
2022/08/16 05:56:24;;;;;;;15.57;14.15;;;;;;;36.10;nan;94693.88;4998089;28;20234;-71
2022/08/16 05:58:52;;;;;;;17.10;14.70;;;;;;;36.69;nan;94687.19;5000281;28;20203;-70
2022/08/16 06:01:19;;;;;;;17.00;15.35;;;;;;;36.13;nan;94681.00;4989192;28;20208;-70
2022/08/16 06:03:46;;;;;;;15.23;13.93;;;;;;;36.20;nan;94680.94;4991351;28;20212;-72
2022/08/16 06:06:12;;;;;;;17.35;13.73;;;;;;;35.67;nan;94688.50;4989985;28;20251;-71
2022/08/16 06:08:39;;;;;;;14.85;13.55;;;;;;;36.08;nan;94690.66;4990069;28;20669;-70
2022/08/16 06:11:09;;;;;;;15.23;13.73;;;;;;;36.22;nan;94705.34;4993609;28;20246;-70
2022/08/16 06:13:36;;;;;;;18.60;14.38;;;;;;;35.07;nan;94699.44;4994249;28;20215;-72
2022/08/16 06:16:05;;;;;;;14.43;13.05;;;;;;;35.40;nan;94688.69;4993197;28;20212;-71
2022/08/16 06:18:32;;;;;;;12.90;12.02;;;;;;;35.77;nan;94691.50;4994035;28;20231;-71
2022/08/16 06:20:59;;;;;;;13.10;12.18;;;;;;;36.62;nan;94697.06;4993462;28;20710;-70
2022/08/16 06:23:26;;;;;;;13.30;12.15;;;;;;;37.06;nan;94688.78;4994820;28;20285;-72
2022/08/16 06:25:53;;;;;;;13.43;12.43;;;;;;;37.67;nan;94686.94;4995364;28;20212;-71
2022/08/16 06:28:20;;;;;;;12.90;11.90;;;;;;;35.76;nan;94680.09;4995197;28;20640;-71
2022/08/16 06:30:47;;;;;;;14.02;12.13;;;;;;;35.95;nan;94680.16;4997351;28;20211;-71
2022/08/16 06:33:18;;;;;;;13.85;12.43;;;;;;;36.10;nan;94676.19;4995021;28;20208;-69
2022/08/16 06:35:45;;;;;;;13.30;11.93;;;;;;;36.83;nan;94677.28;4998382;28;20254;-71
2022/08/16 06:38:11;;;;;;;14.63;13.32;;;;;;;37.43;nan;94676.25;4993953;28;20228;-71
2022/08/16 06:40:38;;;;;;;15.75;14.13;;;;;;;36.49;nan;94684.75;4993758;28;20211;-72
2022/08/16 06:43:05;;;;;;;15.60;12.32;;;;;;;35.94;nan;94689.94;4994462;28;20212;-70
2022/08/16 06:45:32;;;;;;;14.60;13.25;;;;;;;35.96;nan;94672.03;4992887;28;20214;-70
2022/08/16 06:47:58;;;;;;;13.93;12.57;;;;;;;35.38;nan;94679.38;4994769;28;20203;-71
2022/08/16 06:50:26;;;;;;;14.80;13.30;;;;;;;36.51;nan;94680.06;4995580;28;20293;-71
2022/08/16 06:52:53;;;;;;;14.40;13.02;;;;;;;36.89;nan;94679.81;4992991;28;20216;-71
2022/08/16 06:55:20;;;;;;;14.07;12.77;;;;;;;36.27;nan;94676.44;4992809;28;20203;-71
2022/08/16 06:57:47;;;;;;;15.15;12.85;;;;;;;36.39;nan;94676.50;4995736;28;20266;-70
2022/08/16 07:00:15;;;;;;;14.48;13.30;;;;;;;37.21;nan;94659.25;4993743;28;20681;-70
2022/08/16 07:02:43;;;;;;;14.18;12.73;;;;;;;36.75;nan;94654.56;4994454;28;20207;-71
2022/08/16 07:05:11;;;;;;;14.65;13.20;;;;;;;37.69;nan;94656.53;4992850;28;20280;-71
2022/08/16 07:07:40;;;;;;;14.10;12.27;;;;;;;37.13;nan;94652.41;4994914;28;20200;-72
2022/08/16 07:10:08;;;;;;;17.77;14.68;;;;;;;37.39;nan;94647.78;4994852;28;20617;-71
2022/08/16 07:12:35;;;;;;;14.57;13.38;;;;;;;37.32;nan;94652.41;4994383;28;20780;-71
2022/08/16 07:15:02;;;;;;;11.80;10.77;;;;;;;36.63;nan;94651.00;4994260;28;20214;-71
2022/08/16 07:17:29;;;;;;;12.07;10.98;;;;;;;36.20;nan;94648.41;4994156;28;20215;-72
2022/08/16 07:19:56;;;;;;;12.68;11.63;;;;;;;35.60;nan;94638.34;4991323;28;20697;-69
2022/08/16 07:22:23;;;;;;;14.63;11.18;;;;;;;35.94;nan;94633.59;4992009;28;20203;-72
2022/08/16 07:24:52;;;;;;;14.85;13.02;;;;;;;35.59;nan;94634.09;4995193;28;20289;-71
2022/08/16 07:27:19;;;;;;;12.75;11.55;;;;;;;34.95;nan;94624.53;4994332;28;20215;-72
2022/08/16 07:29:46;;;;;;;17.70;12.40;;;;;;;35.44;nan;94638.84;4995418;28;20208;-71
2022/08/16 07:32:12;;;;;;;14.73;13.20;;;;;;;35.40;nan;94637.66;4994370;28;20695;-71
2022/08/16 07:34:39;;;;;;;15.70;10.32;;;;;;;35.10;nan;94634.81;4993017;28;20655;-71
2022/08/16 07:37:10;;;;;;;14.65;10.95;;;;;;;34.98;nan;94634.66;4992891;28;20254;-71
2022/08/16 07:39:38;;;;;;;17.30;13.35;;;;;;;34.98;nan;94631.22;4992752;28;21071;-73
2022/08/16 07:42:07;;;;;;;11.68;10.68;;;;;;;34.46;nan;94631.22;4994716;28;20208;-71
2022/08/16 07:44:33;;;;;;;13.25;11.05;;;;;;;33.65;nan;94636.00;4991661;28;20207;-71
2022/08/16 07:47:00;;;;;;;12.55;10.32;;;;;;;33.44;nan;94638.81;4993142;28;20203;-70
2022/08/16 07:49:27;;;;;;;11.02;9.05;;;;;;;33.29;nan;94640.84;4992835;28;20223;-72
2022/08/16 07:51:54;;;;;;;13.00;11.73;;;;;;;33.06;nan;94641.19;4993369;28;20231;-73
2022/08/16 07:54:20;;;;;;;12.02;10.90;;;;;;;32.92;nan;94632.44;4995495;28;20581;-71
2022/08/16 07:56:47;;;;;;;13.52;9.88;;;;;;;32.74;nan;94632.19;4994519;28;20666;-73
2022/08/16 07:59:15;;;;;;;12.38;9.88;;;;;;;32.72;nan;94639.44;4992962;28;20204;-72
2022/08/16 08:01:42;;;;;;;9.15;8.07;;;;;;;32.43;nan;94645.78;4993217;28;20216;-71
2022/08/16 08:04:11;;;;;;;13.73;8.32;;;;;;;32.34;nan;94647.78;4991739;28;20611;-72
2022/08/16 08:06:39;;;;;;;7.93;7.25;;;;;;;32.26;nan;94645.31;4991372;28;20598;-71
2022/08/16 08:09:06;;;;;;;6.75;6.22;;;;;;;32.33;nan;94646.16;4993764;28;20269;-73
2022/08/16 08:11:35;;;;;;;7.88;7.38;;;;;;;32.24;nan;94651.75;4994166;28;20756;-72
2022/08/16 08:14:02;;;;;;;7.25;6.57;;;;;;;32.21;nan;94645.06;4994661;28;20253;-71
2022/08/16 08:16:32;;;;;;;7.30;6.72;;;;;;;31.96;nan;94638.63;4990667;28;20220;-71
2022/08/16 08:19:02;;;;;;;7.35;6.30;;;;;;;31.39;nan;94643.03;4994561;28;20227;-71
2022/08/16 08:21:30;;;;;;;7.35;6.85;;;;;;;31.41;nan;94641.03;4997158;28;20605;-72
2022/08/16 08:23:57;;;;;;;11.10;6.97;;;;;;;31.46;nan;94643.06;4994750;28;20605;-72
2022/08/16 08:26:24;;;;;;;7.45;6.90;;;;;;;31.31;nan;94645.78;4992664;28;20602;-73
2022/08/16 08:28:51;;;;;;;7.68;7.18;;;;;;;31.41;nan;94645.47;4996400;28;20248;-71
2022/08/16 08:31:18;;;;;;;7.30;6.72;;;;;;;31.57;nan;94639.94;4992932;28;20208;-72
2022/08/16 08:33:46;;;;;;;11.15;10.05;;;;;;;31.48;nan;94641.06;4990674;28;20658;-71
2022/08/16 08:36:20;;;;;;;8.65;7.80;;;;;;;31.48;nan;94654.19;4991562;28;20212;-71
2022/08/16 08:38:48;;;;;;;8.07;7.47;;;;;;;31.29;nan;94637.28;4994448;28;20222;-71
2022/08/16 08:41:15;;;;;;;6.72;6.32;;;;;;;31.56;nan;94648.81;4988794;28;20318;-71
2022/08/16 08:43:42;;;;;;;6.90;6.43;;;;;;;31.72;nan;94650.38;4991106;28;20208;-71
2022/08/16 08:46:09;;;;;;;5.35;4.90;;;;;;;31.57;nan;94652.25;4986561;28;20445;-71
2022/08/16 08:48:36;;;;;;;5.65;5.35;;;;;;;31.49;nan;94647.94;4991761;28;20208;-71
2022/08/16 08:51:07;;;;;;;7.25;6.30;;;;;;;31.40;nan;94644.66;4991157;28;20199;-70
2022/08/16 08:53:35;;;;;;;6.07;5.68;;;;;;;31.05;nan;94640.25;4993209;28;20212;-71
2022/08/16 08:56:02;;;;;;;6.03;5.60;;;;;;;30.75;nan;94642.97;4996769;28;20203;-73
2022/08/16 08:58:29;;;;;;;6.40;5.90;;;;;;;30.53;nan;94637.81;4999214;28;20227;-71
2022/08/16 09:00:57;;;;;;;5.50;5.05;;;;;;;30.30;nan;94640.56;4998255;28;20211;-74
2022/08/16 09:03:24;;;;;;;6.07;5.57;;;;;;;30.25;nan;94638.47;4996711;28;20204;-72
2022/08/16 09:05:51;;;;;;;6.80;5.75;;;;;;;30.31;nan;94637.75;4997263;28;20227;-73
2022/08/16 09:08:19;;;;;;;6.25;5.70;;;;;;;30.35;nan;94632.97;4995254;28;20202;-72
2022/08/16 09:10:46;;;;;;;6.00;5.45;;;;;;;30.29;nan;94625.81;4990574;28;20247;-69
2022/08/16 09:13:13;;;;;;;6.35;5.72;;;;;;;30.10;nan;94643.75;4989902;28;20298;-70
2022/08/16 09:15:40;;;;;;;6.47;5.97;;;;;;;30.16;nan;94650.06;4990506;28;20208;-69
2022/08/16 09:18:07;;;;;;;6.18;5.68;;;;;;;30.21;nan;94647.69;4990313;28;20652;-70
2022/08/16 09:20:34;;;;;;;6.43;5.85;;;;;;;30.19;nan;94647.06;4992011;28;20214;-73
2022/08/16 09:23:02;;;;;;;11.20;6.63;;;;;;;30.05;nan;94653.94;4993331;28;20211;-70
2022/08/16 09:25:30;;;;;;;15.38;13.77;;;;;;;30.03;nan;94650.69;4986995;28;20199;-69
2022/08/16 09:27:57;;;;;;;27.20;21.67;;;;;;;30.08;nan;94648.34;4986790;28;20591;-71
2022/08/16 09:30:24;;;;;;;35.88;27.55;;;;;;;30.23;nan;94640.47;4988210;28;20212;-70
2022/08/16 09:32:53;;;;;;;38.85;25.17;;;;;;;30.05;nan;94642.66;4987119;28;20207;-70
2022/08/16 09:35:20;;;;;;;27.63;21.23;;;;;;;29.96;nan;94649.75;4987240;28;20212;-70
2022/08/16 09:37:47;;;;;;;10.35;9.07;;;;;;;29.86;nan;94643.97;4989592;28;20306;-72
2022/08/16 09:40:14;;;;;;;7.05;6.47;;;;;;;29.87;nan;94647.41;4991202;28;20490;-70
2022/08/16 09:42:43;;;;;;;6.45;6.03;;;;;;;30.01;nan;94644.00;4987282;28;20211;-69
2022/08/16 09:45:11;;;;;;;7.40;5.65;;;;;;;30.21;nan;94631.97;4988029;28;20265;-70
2022/08/16 09:47:38;;;;;;;7.22;6.28;;;;;;;30.30;nan;94636.13;4984223;28;20302;-69
2022/08/16 09:50:06;;;;;;;5.82;5.45;;;;;;;30.26;nan;94645.34;4986415;28;20298;-72
2022/08/16 09:52:36;;;;;;;6.18;5.60;;;;;;;30.33;nan;94642.81;4986984;28;20214;-71
2022/08/16 09:55:04;;;;;;;5.15;4.85;;;;;;;30.52;nan;94638.81;4985914;28;21276;-71
2022/08/16 09:57:31;;;;;;;5.70;5.30;;;;;;;30.61;nan;94640.38;4984507;28;20690;-71
2022/08/16 10:00:01;;;;;;;6.07;5.47;;;;;;;30.68;nan;94638.66;4992487;28;20665;-72
2022/08/16 10:02:28;;;;;;;6.22;5.93;;;;;;;30.90;nan;94640.31;4992037;28;20207;-71
2022/08/16 10:04:56;;;;;;;7.72;6.45;;;;;;;30.94;nan;94627.59;4988586;28;21561;-71
2022/08/16 10:07:24;;;;;;;6.80;6.40;;;;;;;30.59;nan;94637.13;4988879;28;20245;-68
2022/08/16 10:09:51;;;;;;;6.03;5.43;;;;;;;30.23;nan;94637.03;4988001;28;20208;-71
2022/08/16 10:15:07;;;;;;;7.38;6.78;;;;;;;29.82;nan;94644.50;4990687;28;22126;-72
2022/08/16 10:17:34;;;;;;;7.75;7.18;;;;;;;29.66;nan;94643.66;4991875;28;20207;-71
2022/08/16 10:20:01;;;;;;;7.07;6.07;;;;;;;29.71;nan;94636.06;4992563;28;20234;-71
2022/08/16 10:22:28;;;;;;;6.28;5.43;;;;;;;29.87;nan;94629.06;4992405;28;20207;-71
2022/08/16 10:24:55;;;;;;;5.97;5.53;;;;;;;30.22;nan;94630.97;4991566;28;20215;-71
2022/08/16 10:27:22;;;;;;;10.18;6.90;;;;;;;30.47;nan;94628.88;4992557;28;20359;-71
2022/08/16 10:29:49;;;;;;;7.53;6.30;;;;;;;30.57;nan;94626.81;4989975;28;20207;-71
2022/08/16 10:32:17;;;;;;;7.00;6.03;;;;;;;30.63;nan;94617.41;4994229;28;20223;-70
2022/08/16 10:34:44;;;;;;;6.80;6.13;;;;;;;30.15;nan;94632.72;4991007;28;20208;-70
2022/08/16 10:37:11;;;;;;;6.47;6.07;;;;;;;29.81;nan;94640.25;4991115;28;20289;-70
2022/08/16 10:39:38;;;;;;;7.00;6.53;;;;;;;29.46;nan;94642.53;4991459;28;20341;-70
2022/08/16 10:42:05;;;;;;;6.43;5.75;;;;;;;29.00;nan;94646.94;4991749;28;20212;-71
2022/08/16 10:44:32;;;;;;;7.35;6.63;;;;;;;28.81;nan;94647.38;4992799;28;20285;-71
2022/08/16 10:46:59;;;;;;;9.73;7.28;;;;;;;28.52;nan;94650.63;4992157;28;20262;-72
2022/08/16 10:49:27;;;;;;;8.77;7.63;;;;;;;28.25;nan;94647.47;4992627;28;20270;-71
2022/08/16 10:51:54;;;;;;;17.38;12.13;;;;;;;28.17;nan;94642.25;4994046;28;20211;-71
2022/08/16 10:54:21;;;;;;;14.70;13.02;;;;;;;28.30;nan;94639.94;4991000;28;20269;-72
2022/08/16 10:56:48;;;;;;;14.27;9.57;;;;;;;28.71;nan;94631.88;4991755;28;20207;-72
2022/08/16 10:59:15;;;;;;;9.57;8.85;;;;;;;29.18;nan;94636.19;4990797;28;20244;-73
2022/08/16 11:01:42;;;;;;;7.35;6.85;;;;;;;29.70;nan;94623.97;4995481;28;20220;-72
2022/08/16 11:04:09;;;;;;;6.93;6.20;;;;;;;29.90;nan;94631.31;4993913;28;20261;-70
2022/08/16 11:06:37;;;;;;;5.78;5.35;;;;;;;30.09;nan;94623.78;4992608;28;20654;-72
2022/08/16 11:09:04;;;;;;;7.45;6.75;;;;;;;30.41;nan;94616.50;4990477;28;20713;-72
2022/08/16 11:11:31;;;;;;;7.57;5.75;;;;;;;30.37;nan;94621.31;4992549;28;20292;-73
2022/08/16 11:13:58;;;;;;;6.68;6.28;;;;;;;30.26;nan;94624.38;4993644;28;20681;-73
2022/08/16 11:16:27;;;;;;;5.65;5.15;;;;;;;29.84;nan;94624.19;4992330;28;20595;-73
2022/08/16 11:18:55;;;;;;;8.10;6.32;;;;;;;29.56;nan;94627.38;4992877;28;20234;-73
2022/08/16 11:21:24;;;;;;;8.32;7.38;;;;;;;29.67;nan;94618.31;4993177;28;20208;-73
2022/08/16 11:23:53;;;;;;;7.55;6.20;;;;;;;29.55;nan;94623.16;4991437;28;20208;-73
2022/08/16 11:26:21;;;;;;;5.90;5.43;;;;;;;29.50;nan;94630.72;4991849;28;20303;-73
2022/08/16 11:28:49;;;;;;;5.85;5.35;;;;;;;29.28;nan;94636.75;4992651;28;20608;-73
2022/08/16 11:31:16;;;;;;;7.28;6.50;;;;;;;29.08;nan;94639.84;4991428;28;20310;-73
2022/08/16 11:33:44;;;;;;;12.27;8.85;;;;;;;28.79;nan;94634.44;4992391;28;20207;-72
2022/08/16 11:36:11;;;;;;;10.43;9.50;;;;;;;28.26;nan;94638.63;4992576;28;20206;-72
2022/08/16 11:38:38;;;;;;;8.75;6.95;;;;;;;27.67;nan;94638.13;4995952;28;20224;-75
2022/08/16 11:41:06;;;;;;;11.05;10.07;;;;;;;27.38;nan;94632.56;4994406;28;20264;-74
2022/08/16 11:43:36;;;;;;;8.10;7.38;;;;;;;26.85;nan;94646.03;4994960;28;20653;-73